Time;durP1;ratioP1;P1;durP2;ratioP2;P2;SDS_P1;SDS_P2;PMS_P1;PMS_P2;Temp;Humidity;BMP_temperature;BMP_pressure;BME280_temperature;BME280_humidity;BME280_pressure;Samples;Min_cycle;Max_cycle;Signal;HPM_P1;HPM_P2
2021/03/10 00:00:35;;;;;;;36.00;18.65;;;;;;;5.05;35.38;101534.59;1768190;80;21506;-80
2021/03/10 00:03:03;;;;;;;31.37;17.90;;;;;;;5.05;35.30;101527.95;1768274;80;21102;-80
2021/03/10 00:05:35;;;;;;;30.72;15.70;;;;;;;5.05;35.38;101527.95;1746728;81;21091;-79
2021/03/10 00:08:06;;;;;;;29.75;15.70;;;;;;;5.05;35.42;101526.62;1753486;80;21094;-79
2021/03/10 00:10:34;;;;;;;27.95;14.68;;;;;;;5.05;35.51;101523.97;1747926;82;21521;-79
2021/03/10 00:13:05;;;;;;;28.23;15.58;;;;;;;5.06;35.63;101525.66;1748987;82;21077;-75
2021/03/10 00:15:32;;;;;;;27.05;14.70;;;;;;;5.08;35.78;101526.88;1749507;82;21067;-75
2021/03/10 00:18:01;;;;;;;30.52;17.45;;;;;;;5.07;35.60;101519.39;1749188;80;21171;-75
2021/03/10 00:20:32;;;;;;;26.23;15.25;;;;;;;5.09;35.41;101521.50;1747956;81;21145;-76
2021/03/10 00:22:59;;;;;;;;;;;;;;;5.08;35.19;101515.78;1750068;80;21110;-78
2021/03/10 00:25:27;;;;;;;28.77;15.28;;;;;;;5.05;35.46;101516.00;1747413;80;20260;-76
2021/03/10 00:27:54;;;;;;;;;;;;;;;5.03;35.58;101527.65;1749926;80;21094;-77
2021/03/10 00:30:22;;;;;;;28.40;15.75;;;;;;;4.98;35.45;101520.45;1722579;82;20524;-77
2021/03/10 00:32:49;;;;;;;37.15;17.00;;;;;;;4.92;35.67;101515.06;1747363;82;21138;-77
2021/03/10 00:35:18;;;;;;;29.80;15.28;;;;;;;4.88;35.59;101519.33;1743409;82;21134;-78
2021/03/10 00:37:45;;;;;;;27.22;14.50;;;;;;;4.80;35.56;101517.14;1747310;82;21210;-79
2021/03/10 00:40:13;;;;;;;;;;;;;;;4.77;35.56;101518.20;1711125;82;21112;-80
2021/03/10 00:42:42;;;;;;;28.32;14.87;;;;;;;4.77;35.50;101521.33;1722522;82;20210;-80
2021/03/10 00:45:11;;;;;;;25.95;13.98;;;;;;;4.72;35.52;101521.58;1747244;82;21175;-80
2021/03/10 00:47:40;;;;;;;24.43;13.28;;;;;;;4.67;35.59;101519.69;1722875;81;21183;-78
2021/03/10 00:50:11;;;;;;;24.85;13.00;;;;;;;4.67;35.64;101520.17;1747442;82;21191;-76
2021/03/10 00:52:38;;;;;;;25.75;13.62;;;;;;;4.66;35.67;101521.13;1722521;82;21185;-76
2021/03/10 00:55:11;;;;;;;19.92;10.85;;;;;;;4.64;35.70;101517.72;1747349;82;21118;-76
2021/03/10 00:57:39;;;;;;;19.92;11.15;;;;;;;4.67;35.90;101520.17;1747404;82;21210;-77
2021/03/10 01:00:09;;;;;;;18.62;10.53;;;;;;;4.69;36.08;101521.80;1731187;82;21190;-81
2021/03/10 01:02:36;;;;;;;19.45;9.80;;;;;;;4.73;35.82;101515.83;1747361;82;21190;-77
2021/03/10 01:05:06;;;;;;;15.40;10.15;;;;;;;4.72;35.76;101510.97;1747277;82;21087;-76
2021/03/10 01:07:33;;;;;;;17.12;9.18;;;;;;;4.72;35.70;101511.45;1747359;80;21530;-76
2021/03/10 01:10:04;;;;;;;17.15;10.30;;;;;;;4.71;35.76;101508.42;1771571;81;21569;-79
2021/03/10 01:12:32;;;;;;;18.80;10.05;;;;;;;4.72;35.95;101506.14;1771365;81;21100;-78
2021/03/10 01:14:59;;;;;;;21.37;10.72;;;;;;;4.75;35.98;101507.28;1771594;81;21162;-77
2021/03/10 01:17:26;;;;;;;16.60;9.30;;;;;;;4.74;35.93;101500.28;1771528;81;21194;-80
2021/03/10 01:19:53;;;;;;;19.95;10.72;;;;;;;4.75;36.22;101505.48;1771569;81;21128;-77
2021/03/10 01:22:20;;;;;;;18.60;11.65;;;;;;;4.75;36.06;101509.94;1741040;82;21182;-77
2021/03/10 01:24:47;;;;;;;23.77;11.15;;;;;;;4.72;36.08;101508.31;1771415;81;21129;-80
2021/03/10 01:27:17;;;;;;;20.08;11.30;;;;;;;4.70;36.25;101506.72;1740965;82;21087;-77
2021/03/10 01:29:46;;;;;;;23.52;11.78;;;;;;;4.71;36.28;101510.59;1771476;81;21489;-77
2021/03/10 01:32:15;;;;;;;17.60;10.30;;;;;;;4.72;36.49;101505.66;1740912;82;21098;-78
2021/03/10 01:34:43;;;;;;;15.75;10.20;;;;;;;4.74;36.40;101505.59;1771284;81;21146;-76
2021/03/10 01:37:10;;;;;;;;;;;;;;;4.74;36.38;101512.22;1710510;82;21147;-76
2021/03/10 01:39:37;;;;;;;13.48;7.85;;;;;;;4.72;36.45;101511.45;1769959;81;20263;-76
2021/03/10 01:42:06;;;;;;;13.78;7.58;;;;;;;4.69;36.80;101509.00;1765255;81;21601;-82
2021/03/10 01:44:34;;;;;;;11.68;7.40;;;;;;;4.68;37.14;101508.59;1765079;80;21165;-77
2021/03/10 01:47:02;;;;;;;10.88;7.45;;;;;;;4.68;37.33;101500.64;1775579;78;21603;-79
2021/03/10 01:49:29;;;;;;;15.40;8.95;;;;;;;4.69;37.40;101511.17;1746896;80;21142;-80
2021/03/10 01:51:56;;;;;;;12.95;7.25;;;;;;;4.70;37.47;101508.05;1748397;82;21059;-76
2021/03/10 01:54:23;;;;;;;;;;;;;;;4.70;37.47;101509.38;1778419;80;21062;-79
2021/03/10 01:56:52;;;;;;;13.80;7.80;;;;;;;4.70;37.53;101507.57;1743897;80;20223;-79
2021/03/10 01:59:20;;;;;;;13.38;8.40;;;;;;;4.69;37.63;101505.02;1775908;80;21553;-77
2021/03/10 02:01:47;;;;;;;16.42;10.32;;;;;;;4.71;37.64;101511.92;1743817;80;21192;-79
2021/03/10 02:04:14;;;;;;;13.40;8.95;;;;;;;4.73;37.67;101515.83;1811366;78;21501;-80
2021/03/10 02:07:13;;;;;;;16.40;9.03;;;;;;;4.75;37.67;101515.25;1811414;79;21129;-76
2021/03/10 02:09:55;;;;;;;13.78;9.00;;;;;;;4.74;37.73;101517.05;1811788;79;21146;-81
2021/03/10 02:12:36;;;;;;;13.43;8.08;;;;;;;4.75;37.71;101526.72;1799054;79;21067;-80
2021/03/10 02:15:20;;;;;;;17.05;10.88;;;;;;;4.76;37.71;101523.10;1782094;80;21058;-82
2021/03/10 02:17:53;;;;;;;14.50;10.08;;;;;;;4.78;37.69;101525.69;1782339;79;21660;-76
2021/03/10 02:20:41;;;;;;;14.53;10.63;;;;;;;4.77;37.56;101522.19;1781956;79;21553;-81
2021/03/10 02:23:57;;;;;;;16.10;9.90;;;;;;;4.75;37.65;101519.23;1779631;80;21160;-80
2021/03/10 02:26:49;;;;;;;18.27;10.48;;;;;;;4.72;37.79;101528.22;1779556;80;21140;-76
2021/03/10 02:29:16;;;;;;;16.48;11.22;;;;;;;4.71;37.80;101527.00;1779778;80;21698;-79
2021/03/10 02:31:48;;;;;;;21.30;12.33;;;;;;;4.70;37.66;101527.95;1747834;80;21500;-78
2021/03/10 02:34:17;;;;;;;81.92;38.90;;;;;;;4.65;37.63;101527.38;1747457;80;21094;-77
2021/03/10 02:36:47;;;;;;;145.60;43.55;;;;;;;4.60;37.75;101527.67;1712907;82;21222;-79
2021/03/10 02:39:17;;;;;;;288.90;57.65;;;;;;;4.52;37.80;101529.92;1771186;81;21067;-76
2021/03/10 02:41:44;;;;;;;103.32;43.83;;;;;;;4.39;37.86;101528.48;1736844;82;21528;-79
2021/03/10 02:44:11;;;;;;;;;;;;;;;4.26;38.01;101530.16;1767341;79;21125;-79
2021/03/10 02:46:38;;;;;;;126.35;57.78;;;;;;;4.15;38.08;101528.15;1783176;80;20477;-80
2021/03/10 02:49:06;;;;;;;255.67;131.45;;;;;;;3.98;38.34;101529.13;1760361;80;21064;-81
2021/03/10 02:51:34;;;;;;;279.52;135.00;;;;;;;3.87;38.51;101542.17;1771482;80;21497;-78
2021/03/10 02:54:05;;;;;;;199.38;100.65;;;;;;;3.73;38.82;101533.69;1771506;81;21512;-81
2021/03/10 02:56:32;;;;;;;183.93;99.15;;;;;;;3.66;39.03;101533.64;1771491;80;21518;-78
2021/03/10 02:59:00;;;;;;;181.18;93.42;;;;;;;3.61;39.11;101537.03;1774525;80;21562;-80
2021/03/10 03:01:27;;;;;;;195.50;108.50;;;;;;;3.58;39.27;101533.69;1752259;82;21167;-78
2021/03/10 03:03:55;;;;;;;209.90;110.68;;;;;;;3.55;39.39;101526.79;1748115;81;21486;-80
2021/03/10 03:06:22;;;;;;;;;;;;;;;3.54;39.51;101529.91;1773968;81;21503;-80
2021/03/10 03:08:49;;;;;;;181.60;99.17;;;;;;;3.55;39.60;101538.23;1771539;80;20219;-79
2021/03/10 03:11:16;;;;;;;;;;;;;;;3.52;39.66;101539.72;1750443;81;21072;-76
2021/03/10 03:13:43;;;;;;;165.90;84.13;;;;;;;3.53;39.72;101539.25;1771761;81;20469;-79
2021/03/10 03:16:11;;;;;;;189.50;88.92;;;;;;;3.49;39.72;101543.01;1771202;81;21126;-79
2021/03/10 03:18:38;;;;;;;178.93;83.37;;;;;;;3.44;39.71;101541.09;1739352;82;21166;-79
2021/03/10 03:21:06;;;;;;;222.88;92.85;;;;;;;3.40;39.73;101540.88;1771494;79;21060;-76
2021/03/10 03:23:34;;;;;;;247.00;103.85;;;;;;;3.30;39.79;101548.00;1739450;82;21510;-77
2021/03/10 03:26:00;;;;;;;;;;;;;;;3.17;39.96;101539.50;1774367;80;21135;-74
2021/03/10 03:28:28;;;;;;;211.22;88.70;;;;;;;3.05;40.18;101540.56;1761222;81;20268;-74
2021/03/10 03:30:55;;;;;;;197.07;92.53;;;;;;;2.91;40.38;101543.11;1773373;81;21063;-77
2021/03/10 03:33:26;;;;;;;194.95;89.15;;;;;;;2.80;40.62;101544.14;1772378;81;21055;-79
2021/03/10 03:35:56;;;;;;;201.58;98.85;;;;;;;2.74;40.85;101543.16;1758854;81;21530;-79
2021/03/10 03:38:26;;;;;;;213.55;100.90;;;;;;;2.68;41.08;101551.39;1771556;79;21094;-77
2021/03/10 03:40:55;;;;;;;216.05;110.92;;;;;;;2.64;41.21;101545.91;1771607;81;21479;-77
2021/03/10 03:43:28;;;;;;;192.72;104.47;;;;;;;2.60;41.35;101554.93;1771514;81;21079;-74
2021/03/10 03:45:56;;;;;;;206.55;108.22;;;;;;;2.56;41.54;101557.34;1740146;81;21086;-77
2021/03/10 03:48:23;;;;;;;178.70;91.00;;;;;;;2.54;41.68;101554.32;1707955;83;21531;-80
2021/03/10 03:50:50;;;;;;;192.10;89.13;;;;;;;2.54;41.76;101556.08;1707677;82;21588;-77
2021/03/10 03:53:18;;;;;;;196.57;100.72;;;;;;;2.59;41.70;101557.16;1730231;83;21197;-80
2021/03/10 03:55:47;;;;;;;193.65;89.92;;;;;;;2.61;41.67;101558.80;1730333;81;21093;-81
2021/03/10 03:58:14;;;;;;;183.68;94.17;;;;;;;2.64;41.61;101552.05;1684737;83;21127;-83
2021/03/10 04:00:41;;;;;;;216.45;101.95;;;;;;;2.65;41.67;101550.25;1739411;81;21143;-78
2021/03/10 04:03:09;;;;;;;196.95;96.67;;;;;;;2.67;41.66;101562.44;1802459;79;21176;-78
2021/03/10 04:05:36;;;;;;;174.07;87.12;;;;;;;2.70;41.55;101555.67;1777591;79;21473;-78
2021/03/10 04:08:05;;;;;;;184.60;90.15;;;;;;;2.70;41.51;101554.83;1777538;79;21197;-77
2021/03/10 04:10:36;;;;;;;172.87;85.92;;;;;;;2.69;41.64;101562.38;1801562;79;21703;-79
2021/03/10 04:13:03;;;;;;;159.45;75.83;;;;;;;2.69;41.61;101561.91;1800814;79;21165;-79
2021/03/10 04:15:32;;;;;;;149.93;75.78;;;;;;;2.68;41.68;101568.58;1771484;78;21553;-78
2021/03/10 04:18:01;;;;;;;169.50;78.37;;;;;;;2.66;41.80;101566.50;1775699;80;21173;-76
2021/03/10 04:20:28;;;;;;;175.78;85.42;;;;;;;2.66;41.92;101571.80;1774242;79;21164;-79
2021/03/10 04:22:55;;;;;;;175.30;81.25;;;;;;;2.68;41.89;101567.26;1770806;81;21134;-77
2021/03/10 04:25:22;;;;;;;230.43;95.17;;;;;;;2.70;41.92;101569.37;1738866;81;21193;-82
2021/03/10 04:27:49;;;;;;;;;;;;;;;2.71;41.90;101560.50;1759249;80;21188;-78
2021/03/10 04:30:19;;;;;;;198.57;90.50;;;;;;;2.70;41.76;101573.34;1775609;80;20732;-76
2021/03/10 04:32:46;;;;;;;214.12;96.32;;;;;;;2.66;41.78;101574.44;1780607;80;21193;-77
2021/03/10 04:35:16;;;;;;;246.68;110.68;;;;;;;2.64;41.64;101575.00;1781692;80;21197;-77
2021/03/10 04:37:43;;;;;;;247.88;116.42;;;;;;;2.60;41.61;101569.48;1769962;80;21109;-77
2021/03/10 04:40:12;;;;;;;250.07;119.00;;;;;;;2.55;41.62;101572.36;1773173;79;21217;-78
2021/03/10 04:42:39;;;;;;;278.35;135.43;;;;;;;2.51;41.79;101572.98;1744237;81;21633;-75
2021/03/10 04:45:09;;;;;;;266.00;129.40;;;;;;;2.53;41.75;101575.06;1769603;81;21193;-77
2021/03/10 04:47:37;;;;;;;260.02;128.32;;;;;;;2.50;41.78;101576.56;1771904;78;21208;-76
2021/03/10 04:50:06;;;;;;;243.50;121.65;;;;;;;2.46;41.93;101576.33;1764394;81;21202;-82
2021/03/10 04:52:33;;;;;;;236.50;118.95;;;;;;;2.49;41.98;101578.80;1757886;80;21180;-79
2021/03/10 04:55:04;;;;;;;247.22;117.22;;;;;;;2.48;41.89;101577.09;1749813;79;21189;-75
2021/03/10 04:57:31;;;;;;;248.25;121.30;;;;;;;2.48;41.96;101581.53;1768509;81;21154;-76
2021/03/10 04:59:58;;;;;;;247.73;118.93;;;;;;;2.47;42.01;101584.64;1796537;79;21221;-78
2021/03/10 05:02:25;;;;;;;223.95;108.22;;;;;;;2.52;41.95;101574.69;1754588;80;21225;-79
2021/03/10 05:04:53;;;;;;;234.12;108.97;;;;;;;2.60;41.94;101580.05;1799914;79;21189;-76
2021/03/10 05:07:19;;;;;;;;;;;;;;;2.61;41.90;101580.44;1803275;79;21189;-80
2021/03/10 05:09:48;;;;;;;229.43;116.12;;;;;;;2.65;42.01;101580.67;1767535;81;20294;-78
2021/03/10 05:12:17;;;;;;;261.60;133.07;;;;;;;2.69;42.07;101580.43;1760729;79;21483;-79
2021/03/10 05:14:46;;;;;;;262.63;135.43;;;;;;;2.72;41.88;101584.69;1795879;79;21253;-78
2021/03/10 05:17:15;;;;;;;301.35;149.87;;;;;;;2.73;41.90;101582.45;1729335;81;21207;-78
2021/03/10 05:19:43;;;;;;;308.32;158.72;;;;;;;2.75;41.87;101583.21;1766970;80;21211;-78
2021/03/10 05:22:11;;;;;;;293.52;143.13;;;;;;;2.80;41.97;101593.09;1759787;80;21804;-76
2021/03/10 05:24:39;;;;;;;308.65;151.05;;;;;;;2.85;42.03;101591.52;1763234;80;21240;-75
2021/03/10 05:27:06;;;;;;;;;;;;;;;2.91;42.04;101589.42;1768176;79;21530;-76
2021/03/10 05:29:33;;;;;;;271.95;131.75;;;;;;;2.94;41.90;101598.97;1772844;79;20378;-77
2021/03/10 05:32:02;;;;;;;237.35;121.62;;;;;;;2.91;41.93;101600.01;1753419;80;21229;-78
2021/03/10 05:34:32;;;;;;;251.40;118.42;;;;;;;2.95;42.03;101603.32;1815727;77;21138;-76
2021/03/10 05:36:59;;;;;;;218.67;114.15;;;;;;;3.04;42.01;101603.72;1756701;80;21577;-77
2021/03/10 05:39:27;;;;;;;207.85;104.43;;;;;;;3.18;42.02;101604.73;1772875;80;21142;-78
2021/03/10 05:41:56;;;;;;;205.10;105.20;;;;;;;3.37;41.87;101607.27;1770182;80;21058;-81
2021/03/10 05:44:23;;;;;;;190.77;93.35;;;;;;;3.52;41.61;101611.24;1770411;80;21192;-79
2021/03/10 05:46:53;;;;;;;189.35;96.85;;;;;;;3.61;41.40;101613.00;1759477;80;21601;-76
2021/03/10 05:49:23;;;;;;;183.05;86.80;;;;;;;3.67;41.24;101615.30;1758038;80;21736;-76
2021/03/10 05:51:51;;;;;;;172.28;90.42;;;;;;;3.70;41.17;101616.47;1753177;81;21189;-80
2021/03/10 05:54:21;;;;;;;157.55;82.97;;;;;;;3.72;41.11;101618.55;1749676;80;21503;-78
2021/03/10 05:56:48;;;;;;;171.95;87.60;;;;;;;3.78;41.06;101618.23;1781439;78;21243;-77
2021/03/10 05:59:16;;;;;;;77.47;40.40;;;;;;;3.90;40.86;101614.01;1740982;80;21232;-78
2021/03/10 06:01:44;;;;;;;126.22;65.17;;;;;;;3.99;40.23;101619.64;1743967;80;21163;-80
2021/03/10 06:04:12;;;;;;;68.67;34.05;;;;;;;4.10;40.06;101619.52;1771494;79;21740;-75
2021/03/10 06:06:41;;;;;;;62.88;34.05;;;;;;;4.24;39.22;101618.25;1783381;78;21196;-76
2021/03/10 06:09:20;;;;;;;71.07;35.58;;;;;;;4.42;38.64;101622.48;1773878;79;21220;-81
2021/03/10 06:12:03;;;;;;;62.10;31.85;;;;;;;4.65;38.37;101621.59;1742493;80;21221;-75
2021/03/10 06:14:32;;;;;;;32.90;17.37;;;;;;;4.88;37.81;101626.37;1783378;79;21214;-77
2021/03/10 06:17:06;;;;;;;30.02;14.47;;;;;;;5.05;36.88;101625.34;1770004;80;21197;-76
2021/03/10 06:19:47;;;;;;;43.68;21.05;;;;;;;5.21;36.02;101628.75;1766062;79;21192;-78
2021/03/10 06:22:15;;;;;;;45.70;24.12;;;;;;;5.30;35.54;101633.97;1767240;79;22275;-76
2021/03/10 06:24:43;;;;;;;50.52;27.27;;;;;;;5.35;35.53;101630.06;1763971;79;21698;-77
2021/03/10 06:27:10;;;;;;;46.23;21.80;;;;;;;5.34;35.64;101637.66;1733476;79;21244;-77
2021/03/10 06:29:38;;;;;;;42.62;21.42;;;;;;;5.38;34.96;101634.35;1755389;79;21196;-77
2021/03/10 06:32:09;;;;;;;37.30;19.55;;;;;;;5.44;34.86;101632.63;1771877;79;21193;-76
2021/03/10 06:34:43;;;;;;;50.03;20.95;;;;;;;5.47;34.77;101633.77;1753118;79;21617;-78
2021/03/10 06:37:11;;;;;;;50.78;25.30;;;;;;;5.50;34.83;101636.25;1755334;80;21495;-80
2021/03/10 06:39:40;;;;;;;43.17;21.30;;;;;;;5.51;34.64;101635.30;1769853;79;21217;-76
2021/03/10 06:42:14;;;;;;;38.13;19.48;;;;;;;5.51;34.73;101638.43;1757941;79;21221;-77
2021/03/10 06:44:50;;;;;;;53.92;19.98;;;;;;;5.53;34.34;101642.67;1779724;79;21245;-80
2021/03/10 06:47:19;;;;;;;34.00;16.52;;;;;;;5.51;34.16;101644.59;1776449;79;21193;-78
2021/03/10 06:49:54;;;;;;;36.55;19.52;;;;;;;5.47;34.18;101647.06;1778241;78;21273;-77
2021/03/10 06:52:21;;;;;;;36.93;19.10;;;;;;;5.34;34.40;101644.78;1776061;78;21603;-78
2021/03/10 06:54:57;;;;;;;26.62;15.25;;;;;;;5.31;34.83;101644.97;1773533;78;21134;-79
2021/03/10 06:57:25;;;;;;;23.42;12.80;;;;;;;5.30;34.86;101642.79;1758694;80;21579;-78
2021/03/10 06:59:56;;;;;;;21.50;9.58;;;;;;;5.30;34.56;101641.46;1778286;79;21095;-80
2021/03/10 07:02:27;;;;;;;17.12;9.08;;;;;;;5.30;34.23;101645.45;1756428;78;21142;-79
2021/03/10 07:04:56;;;;;;;33.50;12.03;;;;;;;5.31;33.37;101644.52;1776402;78;21122;-78
2021/03/10 07:07:24;;;;;;;16.55;9.60;;;;;;;5.26;34.17;101652.38;1750023;79;21535;-78
2021/03/10 07:09:52;;;;;;;28.15;15.25;;;;;;;5.23;33.33;101654.76;1780821;79;21129;-76
2021/03/10 07:12:24;;;;;;;20.82;10.10;;;;;;;5.19;33.79;101652.39;1778986;79;21122;-76
2021/03/10 07:14:52;;;;;;;21.23;11.63;;;;;;;5.17;34.24;101652.94;1766100;80;21113;-76
2021/03/10 07:17:21;;;;;;;20.20;11.50;;;;;;;5.18;34.82;101650.66;1825707;77;21085;-77
2021/03/10 07:19:49;;;;;;;17.92;10.93;;;;;;;5.20;35.06;101652.76;1825401;77;21704;-76
2021/03/10 07:25:11;;;;;;;23.50;11.83;;;;;;;5.27;35.35;101654.11;1807986;77;22839;-78
2021/03/10 07:27:45;;;;;;;26.37;12.40;;;;;;;5.24;34.98;101655.61;1769132;78;21213;-77
2021/03/10 07:30:13;;;;;;;21.75;11.15;;;;;;;5.25;35.29;101655.50;1750680;80;21137;-78
2021/03/10 07:32:40;;;;;;;24.92;10.40;;;;;;;5.27;34.30;101646.14;1740919;79;21680;-78
2021/03/10 07:35:10;;;;;;;18.90;9.05;;;;;;;5.30;34.98;101643.27;1772201;79;21890;-77
2021/03/10 07:37:39;;;;;;;16.05;8.00;;;;;;;5.39;35.01;101649.34;1739623;79;21141;-76
2021/03/10 07:40:12;;;;;;;17.02;8.63;;;;;;;5.54;34.66;101656.81;1772367;78;21112;-76
2021/03/10 07:42:58;;;;;;;15.25;8.85;;;;;;;5.69;34.35;101659.00;1737803;80;21157;-78
2021/03/10 07:45:43;;;;;;;9.33;6.03;;;;;;;5.92;34.05;101658.89;1743044;80;21630;-78
2021/03/10 07:48:11;;;;;;;12.10;5.80;;;;;;;6.18;33.80;101658.55;1748837;80;21610;-77
2021/03/10 07:50:44;;;;;;;11.28;5.95;;;;;;;6.43;32.46;101657.28;1749479;80;21116;-78
2021/03/10 07:53:11;;;;;;;5.87;4.08;;;;;;;6.64;32.40;101636.85;1737922;80;21141;-76
2021/03/10 07:55:46;;;;;;;10.00;3.95;;;;;;;6.87;31.93;101638.79;1770032;78;21981;-79
2021/03/10 07:58:28;;;;;;;6.83;3.98;;;;;;;7.07;31.61;101636.92;1765753;78;21133;-76
2021/03/10 08:01:14;;;;;;;7.10;4.65;;;;;;;7.27;31.01;101636.03;1738541;80;21105;-77
2021/03/10 08:03:50;;;;;;;8.40;4.33;;;;;;;7.49;31.02;101631.34;1836885;76;22801;-77
2021/03/10 08:06:17;;;;;;;8.63;4.37;;;;;;;7.53;31.00;101634.16;1806150;77;21188;-76
2021/03/10 08:08:45;;;;;;;10.53;4.35;;;;;;;7.59;30.59;101633.25;1757986;79;21947;-78
2021/03/10 08:11:17;;;;;;;6.60;3.58;;;;;;;7.70;30.59;101629.80;1764529;79;21238;-77
2021/03/10 08:13:47;;;;;;;8.53;4.40;;;;;;;7.82;30.20;101629.41;1760355;78;21192;-76
2021/03/10 08:16:16;;;;;;;8.05;4.10;;;;;;;7.93;30.10;101626.80;1753237;79;21270;-78
2021/03/10 08:18:46;;;;;;;14.30;5.10;;;;;;;8.02;30.00;101628.78;1760514;79;21208;-77
2021/03/10 08:21:19;;;;;;;8.48;5.22;;;;;;;8.12;29.95;101626.28;1768003;79;21220;-79
2021/03/10 08:23:48;;;;;;;8.58;5.87;;;;;;;8.22;29.93;101627.78;1767827;79;21188;-80
2021/03/10 08:26:17;;;;;;;11.60;6.55;;;;;;;8.22;29.76;101631.33;1737410;80;21204;-78
2021/03/10 08:28:45;;;;;;;13.98;9.10;;;;;;;8.19;29.65;101637.37;1765255;79;21208;-79
2021/03/10 08:31:12;;;;;;;;;;;;;;;8.10;29.90;101625.56;1763105;78;21778;-78
2021/03/10 08:33:51;;;;;;;9.58;4.67;;;;;;;8.08;29.99;101619.47;1762750;78;20948;-77
2021/03/10 08:36:30;;;;;;;6.03;4.25;;;;;;;8.08;30.01;101628.35;1745629;80;21125;-78
2021/03/10 08:38:57;;;;;;;7.80;4.20;;;;;;;8.16;29.46;101626.91;1737307;80;21189;-80
2021/03/10 08:41:26;;;;;;;8.18;5.25;;;;;;;8.24;29.23;101629.87;1764088;79;21548;-74
2021/03/10 08:44:01;;;;;;;8.25;4.25;;;;;;;8.28;29.02;101628.19;1758101;79;21234;-75
2021/03/10 08:46:42;;;;;;;7.10;4.35;;;;;;;8.24;28.77;101624.53;1760271;79;21821;-77
2021/03/10 08:49:39;;;;;;;9.08;4.70;;;;;;;8.19;29.16;101632.03;1742421;80;21192;-77
2021/03/10 08:52:06;;;;;;;6.15;3.87;;;;;;;8.18;28.81;101629.85;1711922;80;21584;-76
2021/03/10 08:54:59;;;;;;;8.38;5.05;;;;;;;8.21;29.12;101630.94;1752352;79;21129;-78
2021/03/10 08:57:32;;;;;;;9.95;4.22;;;;;;;8.26;29.03;101622.10;1765939;79;21090;-78
2021/03/10 09:00:09;;;;;;;9.98;3.98;;;;;;;8.26;28.77;101621.25;1737390;80;21115;-79
2021/03/10 09:02:40;;;;;;;5.95;3.85;;;;;;;8.26;28.87;101627.92;1770618;79;21108;-76
2021/03/10 09:05:11;;;;;;;12.05;5.53;;;;;;;8.26;28.86;101627.92;1706545;80;21160;-80
2021/03/10 09:07:38;;;;;;;11.70;5.75;;;;;;;8.22;28.49;101630.00;1744775;80;21592;-77
2021/03/10 09:10:16;;;;;;;8.75;4.62;;;;;;;8.10;28.59;101633.08;1769337;79;21619;-77
2021/03/10 09:12:49;;;;;;;8.23;4.35;;;;;;;8.01;29.02;101623.57;1765795;79;21189;-77
2021/03/10 09:15:26;;;;;;;5.83;3.60;;;;;;;7.98;28.94;101636.64;1745731;80;21633;-76
2021/03/10 09:18:07;;;;;;;7.60;4.62;;;;;;;7.89;28.05;101635.98;1751468;79;27720;-76
2021/03/10 09:20:43;;;;;;;6.53;3.72;;;;;;;7.77;28.40;101637.74;1723021;79;21145;-76
2021/03/10 09:23:15;;;;;;;5.85;3.55;;;;;;;7.76;28.43;101629.34;1742113;80;21113;-79
2021/03/10 09:26:17;;;;;;;5.17;3.95;;;;;;;7.73;28.66;101629.59;1759138;79;21768;-77
2021/03/10 09:29:03;;;;;;;;;;;;;;;;;;;;;
2021/03/10 09:42:45;;;;;;;8.18;2.65;;;;;;;7.55;27.99;101621.59;1810091;75;22373;-76
2021/03/10 09:45:27;;;;;;;6.28;2.52;;;;;;;7.50;27.74;101624.58;1772077;78;21234;-77
2021/03/10 09:48:38;;;;;;;5.40;2.92;;;;;;;7.50;27.49;101620.59;1837276;75;24175;-75
2021/03/10 09:51:18;;;;;;;7.10;2.72;;;;;;;7.45;27.46;101625.39;1778458;77;21625;-77
2021/03/10 09:53:53;;;;;;;4.50;2.22;;;;;;;7.44;27.22;101615.67;1781047;77;22055;-74
2021/03/10 09:56:42;;;;;;;;;;;;;;;;;;;;;
2021/03/10 09:59:35;;;;;;;4.28;2.47;;;;;;;7.46;26.61;101620.91;1859595;75;22254;-76
2021/03/10 10:02:17;;;;;;;3.58;2.50;;;;;;;7.42;26.99;101620.76;1776987;76;21128;-75
2021/03/10 10:05:01;;;;;;;5.12;2.30;;;;;;;7.39;27.01;101615.15;1780344;77;21126;-77
2021/03/10 10:07:39;;;;;;;6.15;2.52;;;;;;;7.38;26.95;101616.12;1834932;76;21116;-75
2021/03/10 10:10:24;;;;;;;4.85;2.65;;;;;;;7.41;27.30;101616.39;1832928;76;21997;-76
2021/03/10 10:13:08;;;;;;;2.55;2.00;;;;;;;7.42;27.08;101608.77;1816353;77;20951;-77
2021/03/10 10:15:57;;;;;;;3.98;2.20;;;;;;;7.42;26.97;101608.28;1825882;76;21120;-77
2021/03/10 10:18:27;;;;;;;4.80;2.00;;;;;;;7.33;26.33;101605.78;1816427;77;21165;-78
2021/03/10 10:21:05;;;;;;;5.03;2.83;;;;;;;7.26;26.54;101602.31;1808508;76;21122;-77
2021/03/10 10:23:34;;;;;;;5.00;2.08;;;;;;;7.24;26.62;101594.45;1730700;80;21620;-76
2021/03/10 10:26:07;;;;;;;4.10;2.30;;;;;;;7.18;26.33;101585.56;1790415;78;21217;-77
2021/03/10 10:28:42;;;;;;;5.15;2.75;;;;;;;7.18;26.41;101597.55;1708486;79;21130;-77
2021/03/10 10:31:17;;;;;;;15.45;3.72;;;;;;;7.17;26.77;101597.64;1766336;79;21116;-75
2021/03/10 10:33:53;;;;;;;3.05;2.17;;;;;;;7.16;26.73;101593.28;1756898;79;21149;-76
2021/03/10 10:36:22;;;;;;;7.92;2.42;;;;;;;7.14;26.51;101587.22;1743112;79;21648;-77
2021/03/10 10:38:51;;;;;;;7.45;2.87;;;;;;;7.10;26.24;101586.58;1788083;78;21116;-77
2021/03/10 10:41:26;;;;;;;2.12;1.90;;;;;;;7.01;26.46;101586.74;1738620;79;21118;-74
2021/03/10 10:44:01;;;;;;;3.22;2.35;;;;;;;6.97;26.78;101586.58;1755937;79;21610;-75
2021/03/10 10:46:28;;;;;;;4.20;2.20;;;;;;;6.94;26.46;101577.95;1788673;78;21130;-76
2021/03/10 10:48:57;;;;;;;3.33;2.30;;;;;;;6.92;26.63;101579.88;1768082;78;21739;-76
2021/03/10 10:51:28;;;;;;;2.77;2.00;;;;;;;6.89;26.56;101575.61;1787180;78;21792;-77
2021/03/10 10:54:04;;;;;;;;;;;;;;;6.89;26.57;101576.94;1775344;79;21115;-77
2021/03/10 10:56:31;;;;;;;5.78;2.50;;;;;;;6.90;26.57;101582.63;1753237;80;20270;-74
2021/03/10 10:59:01;;;;;;;7.40;2.75;;;;;;;6.85;26.63;101578.11;1768756;79;21170;-76
2021/03/10 11:01:30;;;;;;;4.20;2.35;;;;;;;6.86;26.82;101574.51;1767414;79;21129;-77
2021/03/10 11:03:58;;;;;;;2.50;1.90;;;;;;;6.88;26.87;101573.91;1738333;80;21144;-76
2021/03/10 11:06:27;;;;;;;4.05;1.62;;;;;;;6.86;26.62;101563.86;1769579;79;21118;-78
2021/03/10 11:08:58;;;;;;;2.72;2.08;;;;;;;6.84;26.31;101563.09;1767836;79;21200;-76
2021/03/10 11:11:28;;;;;;;3.15;2.12;;;;;;;6.79;25.97;101567.89;1768144;79;21152;-77
2021/03/10 11:13:55;;;;;;;2.37;1.70;;;;;;;6.72;26.26;101561.27;1788148;78;21133;-79
2021/03/10 11:16:25;;;;;;;4.67;1.50;;;;;;;6.67;26.10;101558.92;1755318;80;21091;-75
2021/03/10 11:18:57;;;;;;;3.98;1.77;;;;;;;6.60;25.99;101559.00;1741884;79;21125;-78
2021/03/10 11:21:25;;;;;;;2.98;1.80;;;;;;;6.55;26.14;101551.33;1787497;79;21129;-79
2021/03/10 11:24:01;;;;;;;3.98;2.22;;;;;;;6.55;26.23;101547.81;1752823;78;21150;-78
2021/03/10 11:26:28;;;;;;;2.80;1.62;;;;;;;6.51;25.96;101554.30;1789936;78;21156;-77
2021/03/10 11:28:57;;;;;;;3.80;2.02;;;;;;;6.43;25.77;101553.48;1788716;78;21110;-76
2021/03/10 11:31:27;;;;;;;4.90;2.00;;;;;;;6.40;25.83;101552.36;1758210;78;21122;-79
2021/03/10 11:33:54;;;;;;;3.05;1.70;;;;;;;6.39;26.17;101541.34;1786399;78;21559;-76
2021/03/10 11:36:22;;;;;;;2.72;1.87;;;;;;;6.40;26.17;101540.86;1781872;78;21146;-78
2021/03/10 11:38:51;;;;;;;3.20;2.08;;;;;;;6.38;25.99;101539.65;1753054;79;21141;-77
2021/03/10 11:41:19;;;;;;;5.03;2.37;;;;;;;6.36;26.10;101541.58;1735128;79;21133;-78
2021/03/10 11:43:48;;;;;;;4.60;2.75;;;;;;;6.35;26.21;101541.17;1717785;79;21140;-78
2021/03/10 11:46:15;;;;;;;;;;;;;;;6.36;26.34;101544.23;1771051;79;21149;-77
2021/03/10 11:48:42;;;;;;;5.28;2.50;;;;;;;6.33;26.13;101541.77;1766594;79;20587;-77
2021/03/10 11:51:09;;;;;;;6.62;2.72;;;;;;;6.25;26.19;101544.09;1786216;78;21141;-78
2021/03/10 11:53:36;;;;;;;2.55;2.12;;;;;;;6.24;26.50;101534.41;1770194;78;21102;-79
2021/03/10 11:56:04;;;;;;;4.12;2.33;;;;;;;6.21;26.60;101535.46;1772395;78;21069;-79
2021/03/10 11:58:32;;;;;;;2.75;1.98;;;;;;;6.21;26.72;101536.79;1737733;79;21243;-80